createdAt,value
2018-01-30T00:00:36.158Z,86.63
2018-01-30T00:01:36.109Z,86.72
2018-01-30T00:02:36.060Z,86.53
2018-01-30T00:03:36.010Z,86.63
2018-01-30T00:04:35.960Z,87.10
2018-01-30T00:05:35.911Z,87.19
2018-01-30T00:06:35.861Z,87.10
2018-01-30T00:07:35.812Z,87.01
2018-01-30T00:08:35.762Z,86.72
2018-01-30T00:09:35.713Z,87.57
2018-01-30T00:10:35.663Z,86.91
2018-01-30T00:11:35.614Z,87.01
2018-01-30T00:12:35.564Z,87.67
2018-01-30T00:13:35.514Z,87.67
2018-01-30T00:14:35.464Z,87.57
2018-01-30T00:15:35.565Z,87.95
2018-01-30T00:16:35.365Z,87.67
2018-01-30T00:17:35.315Z,87.10
2018-01-30T00:18:35.266Z,87.29
2018-01-30T00:19:35.216Z,87.01
2018-01-30T00:20:35.167Z,87.10
2018-01-30T00:21:35.123Z,87.57
2018-01-30T00:22:35.068Z,87.19
2018-01-30T00:23:35.018Z,87.57
2018-01-30T00:24:34.968Z,87.53
2018-01-30T00:25:34.918Z,87.57
2018-01-30T00:26:34.869Z,87.57
2018-01-30T00:27:34.819Z,87.29
2018-01-30T00:28:34.769Z,87.38
2018-01-30T00:29:34.720Z,87.24
2018-01-30T00:30:34.670Z,87.24
2018-01-30T00:31:34.620Z,87.34
2018-01-30T00:32:34.569Z,87.62
2018-01-30T00:33:34.520Z,87.62
2018-01-30T00:34:34.471Z,87.91
2018-01-30T00:35:34.421Z,87.62
2018-01-30T00:36:34.521Z,86.77
2018-01-30T00:37:34.321Z,87.05
2018-01-30T00:38:34.272Z,86.91
2018-01-30T00:39:34.222Z,87.38
2018-01-30T00:40:34.172Z,86.82
2018-01-30T00:41:34.122Z,87.29
2018-01-30T00:42:34.072Z,87.01
2018-01-30T00:43:34.023Z,87.38
2018-01-30T00:44:33.972Z,87.15
2018-01-30T00:45:33.923Z,86.96
2018-01-30T00:46:33.873Z,87.15
2018-01-30T00:47:33.824Z,87.05
2018-01-30T00:48:33.773Z,87.05
2018-01-30T00:49:33.726Z,87.34
2018-01-30T00:50:33.675Z,87.24
2018-01-30T00:51:33.625Z,87.24
2018-01-30T00:52:33.575Z,86.77
2018-01-30T00:53:33.525Z,86.96
2018-01-30T00:54:33.476Z,86.77
2018-01-30T00:55:33.426Z,87.15
2018-01-30T00:56:33.578Z,87.15
2018-01-30T00:57:33.326Z,87.24
2018-01-30T00:58:33.279Z,87.15
2018-01-30T00:59:33.227Z,87.01
2018-01-30T01:00:33.184Z,87.01
2018-01-30T01:01:33.146Z,86.91
2018-01-30T01:02:33.081Z,87.19
2018-01-30T01:03:33.029Z,86.63
2018-01-30T01:04:32.978Z,85.77
2018-01-30T01:05:32.928Z,86.24
2018-01-30T01:06:32.880Z,85.58
2018-01-30T01:07:32.829Z,85.77
2018-01-30T01:08:32.779Z,85.58
2018-01-30T01:09:32.729Z,85.49
2018-01-30T01:10:32.680Z,85.96
2018-01-30T01:11:32.630Z,86.15
2018-01-30T01:12:32.580Z,85.20
2018-01-30T01:13:32.532Z,85.11
2018-01-30T01:14:32.482Z,85.20
2018-01-30T01:15:32.436Z,85.58
2018-01-30T01:16:32.386Z,85.58
2018-01-30T01:17:32.332Z,85.30
2018-01-30T01:18:32.283Z,85.20
2018-01-30T01:19:32.233Z,85.39
2018-01-30T01:20:32.183Z,85.39
2018-01-30T01:21:32.134Z,85.30
2018-01-30T01:22:32.085Z,85.20
2018-01-30T01:23:32.036Z,85.49
2018-01-30T01:24:31.985Z,85.20
2018-01-30T01:25:31.936Z,85.39
2018-01-30T01:26:31.886Z,85.30
2018-01-30T01:27:31.838Z,85.49
2018-01-30T01:28:31.787Z,85.20
2018-01-30T01:29:31.738Z,85.20
2018-01-30T01:30:31.688Z,85.58
2018-01-30T01:31:31.639Z,85.01
2018-01-30T01:32:31.589Z,84.91
2018-01-30T01:33:31.540Z,85.01
2018-01-30T01:34:31.491Z,84.63
2018-01-30T01:35:31.441Z,85.01
2018-01-30T01:36:31.390Z,85.11
2018-01-30T01:37:31.742Z,85.30
2018-01-30T01:38:31.642Z,85.20
2018-01-30T01:39:31.542Z,85.20
2018-01-30T01:40:31.542Z,85.11
2018-01-30T01:41:31.393Z,84.63
2018-01-30T01:42:31.293Z,84.44
2018-01-30T01:43:31.243Z,84.72
2018-01-30T01:44:31.095Z,84.72
2018-01-30T01:45:30.994Z,84.44
2018-01-30T01:46:30.995Z,84.82
2018-01-30T01:47:30.896Z,84.91
2018-01-30T01:48:30.795Z,84.16
2018-01-30T01:49:30.755Z,84.25
2018-01-30T01:50:30.697Z,83.78
2018-01-30T01:51:30.647Z,84.25
2018-01-30T01:52:30.597Z,84.16
2018-01-30T01:53:30.547Z,84.16
2018-01-30T01:54:30.498Z,84.16
2018-01-30T01:56:30.398Z,84.16
2018-01-30T01:57:30.349Z,83.97
2018-01-30T01:58:30.300Z,83.97
2018-01-30T01:59:30.251Z,83.68
2018-01-30T02:00:30.199Z,83.39
2018-01-30T02:01:30.151Z,83.59
2018-01-30T02:02:30.101Z,83.20
2018-01-30T02:03:30.052Z,83.30
2018-01-30T02:04:30.003Z,82.82
2018-01-30T02:05:29.953Z,82.73
2018-01-30T02:06:29.903Z,82.92
2018-01-30T02:07:29.853Z,83.11
2018-01-30T02:08:29.804Z,82.82
2018-01-30T02:09:29.754Z,82.73
2018-01-30T02:10:29.705Z,82.16
2018-01-30T02:11:29.662Z,82.54
2018-01-30T02:12:29.605Z,82.73
2018-01-30T02:13:29.559Z,83.01
2018-01-30T02:14:29.506Z,83.11
2018-01-30T02:15:29.457Z,83.30
2018-01-30T02:16:29.509Z,83.01
2018-01-30T02:17:29.357Z,83.11
2018-01-30T02:18:29.311Z,83.01
2018-01-30T02:19:29.258Z,82.73
2018-01-30T02:20:29.208Z,83.39
2018-01-30T02:21:29.158Z,83.39
2018-01-30T02:22:29.109Z,83.01
2018-01-30T02:23:29.060Z,83.30
2018-01-30T02:24:29.060Z,83.20
2018-01-30T02:25:28.960Z,83.20
2018-01-30T02:26:28.911Z,83.01
2018-01-30T02:27:28.862Z,82.73
2018-01-30T02:28:28.811Z,82.92
2018-01-30T02:29:28.761Z,83.01
2018-01-30T02:30:28.712Z,83.11
2018-01-30T02:31:28.663Z,83.30
2018-01-30T02:32:28.612Z,83.01
2018-01-30T02:33:28.563Z,82.92
2018-01-30T02:34:28.514Z,82.82
2018-01-30T02:35:28.465Z,83.01
2018-01-30T02:36:28.414Z,83.11
2018-01-30T02:37:28.365Z,82.92
2018-01-30T02:38:28.326Z,82.92
2018-01-30T02:39:28.316Z,82.92
2018-01-30T02:40:28.215Z,82.92
2018-01-30T02:41:28.165Z,82.82
2018-01-30T02:42:28.117Z,83.01
2018-01-30T02:43:28.068Z,83.30
2018-01-30T02:44:28.018Z,83.68
2018-01-30T02:45:27.968Z,83.30
2018-01-30T02:46:27.919Z,83.59
2018-01-30T02:47:27.869Z,83.68
2018-01-30T02:48:27.820Z,83.59
2018-01-30T02:49:27.770Z,83.87
2018-01-30T02:50:27.721Z,83.68
2018-01-30T02:51:27.672Z,84.16
2018-01-30T02:52:27.622Z,84.06
2018-01-30T02:53:27.576Z,83.97
2018-01-30T02:54:27.523Z,84.25
2018-01-30T02:55:27.474Z,84.25
2018-01-30T02:56:27.423Z,83.87
2018-01-30T02:57:27.374Z,83.87
2018-01-30T02:58:27.325Z,85.01
2018-01-30T02:59:27.276Z,85.01
2018-01-30T03:00:27.225Z,85.01
2018-01-30T03:01:27.176Z,84.72
2018-01-30T03:02:27.126Z,84.91
2018-01-30T03:03:27.077Z,84.72
2018-01-30T03:04:27.028Z,84.53
2018-01-30T03:05:26.978Z,84.72
2018-01-30T03:06:26.928Z,84.72
2018-01-30T03:07:26.879Z,84.82
2018-01-30T03:08:26.829Z,84.72
2018-01-30T03:09:26.780Z,84.72
2018-01-30T03:10:26.730Z,84.82
2018-01-30T03:11:26.681Z,84.82
2018-01-30T03:12:26.630Z,85.01
2018-01-30T03:13:26.581Z,85.01
2018-01-30T03:14:26.532Z,84.63
2018-01-30T03:15:26.483Z,84.72
2018-01-30T03:16:26.432Z,84.72
2018-01-30T03:17:26.383Z,84.72
2018-01-30T03:18:26.334Z,84.91
2018-01-30T03:19:26.285Z,83.78
2018-01-30T03:20:26.234Z,84.25
2018-01-30T03:21:26.185Z,84.16
2018-01-30T03:22:26.136Z,84.25
2018-01-30T03:23:26.086Z,84.25
2018-01-30T03:24:26.036Z,84.16
2018-01-30T03:25:25.986Z,84.16
2018-01-30T03:26:25.937Z,83.87
2018-01-30T03:27:25.888Z,83.78
2018-01-30T03:28:25.838Z,83.68
2018-01-30T03:29:25.789Z,83.20
2018-01-30T03:30:25.739Z,83.68
2018-01-30T03:31:25.696Z,83.49
2018-01-30T03:32:25.640Z,83.78
2018-01-30T03:33:25.590Z,83.39
2018-01-30T03:34:25.542Z,83.68
2018-01-30T03:35:25.491Z,83.39
2018-01-30T03:36:25.441Z,82.82
2018-01-30T03:37:25.392Z,83.01
2018-01-30T03:38:25.342Z,82.73
2018-01-30T03:39:25.292Z,83.01
2018-01-30T03:40:25.243Z,83.01
2018-01-30T03:41:25.193Z,82.82
2018-01-30T03:42:25.144Z,82.73
2018-01-30T03:43:25.096Z,82.35
2018-01-30T03:44:25.046Z,82.54
2018-01-30T03:45:24.995Z,82.35
2018-01-30T03:46:24.945Z,82.54
2018-01-30T03:47:24.896Z,82.64
2018-01-30T03:48:24.846Z,82.45
2018-01-30T03:49:24.796Z,82.54
2018-01-30T03:50:24.747Z,82.16
2018-01-30T03:51:24.697Z,82.16
2018-01-30T03:52:24.648Z,82.16
2018-01-30T03:53:24.597Z,82.35
2018-01-30T03:54:24.548Z,82.35
2018-01-30T03:55:24.701Z,82.16
2018-01-30T03:56:24.453Z,81.97
2018-01-30T03:57:24.399Z,82.16
2018-01-30T03:58:24.349Z,82.07
2018-01-30T03:59:24.300Z,82.07
2018-01-30T04:00:24.249Z,81.87
2018-01-30T04:01:24.199Z,81.59
2018-01-30T04:02:24.155Z,81.40
2018-01-30T04:03:24.100Z,81.59
2018-01-30T04:04:24.051Z,81.68
2018-01-30T04:05:24.001Z,81.59
2018-01-30T04:06:23.952Z,81.40
2018-01-30T04:07:23.902Z,81.78
2018-01-30T04:08:23.852Z,81.68
2018-01-30T04:09:23.802Z,81.68
2018-01-30T04:10:23.753Z,81.12
2018-01-30T04:11:23.754Z,81.40
2018-01-30T04:12:23.653Z,81.59
2018-01-30T04:13:23.604Z,81.07
2018-01-30T04:14:23.554Z,81.36
2018-01-30T04:15:23.504Z,81.65
2018-01-30T04:16:23.454Z,81.55
2018-01-30T04:17:23.405Z,81.55
2018-01-30T04:18:23.354Z,81.65
2018-01-30T04:19:23.305Z,81.74
2018-01-30T04:20:23.255Z,81.84
2018-01-30T04:21:23.205Z,81.74
2018-01-30T04:22:23.155Z,81.45
2018-01-30T04:23:23.106Z,81.36
2018-01-30T04:24:23.056Z,81.93
2018-01-30T04:25:23.006Z,82.03
2018-01-30T04:26:22.956Z,82.50
2018-01-30T04:27:22.907Z,82.59
2018-01-30T04:28:22.856Z,82.50
2018-01-30T04:29:22.807Z,82.40
2018-01-30T04:30:22.764Z,82.40
2018-01-30T04:31:22.707Z,82.40
2018-01-30T04:32:22.656Z,82.40
2018-01-30T04:33:22.607Z,82.12
2018-01-30T04:34:22.557Z,82.59
2018-01-30T04:35:22.507Z,82.31
2018-01-30T04:36:22.457Z,82.21
2018-01-30T04:37:22.412Z,81.93
2018-01-30T04:38:22.357Z,82.12
2018-01-30T04:39:22.308Z,81.93
2018-01-30T04:40:22.256Z,82.03
2018-01-30T04:41:22.216Z,82.21
2018-01-30T04:42:22.157Z,81.74
2018-01-30T04:43:22.107Z,81.65
2018-01-30T04:44:22.055Z,81.65
2018-01-30T04:45:22.009Z,81.55
2018-01-30T04:46:21.956Z,81.87
2018-01-30T04:47:21.907Z,81.93
2018-01-30T04:48:21.857Z,81.84
2018-01-30T04:49:21.807Z,81.84
2018-01-30T04:50:21.757Z,80.98
2018-01-30T04:51:21.713Z,81.78
2018-01-30T04:52:22.107Z,81.55
2018-01-30T04:53:21.607Z,81.36
2018-01-30T04:54:21.557Z,80.98
2018-01-30T04:55:21.909Z,81.68
2018-01-30T04:56:21.807Z,81.59
2018-01-30T04:57:21.808Z,81.59
2018-01-30T04:58:21.707Z,81.65
2018-01-30T04:59:21.561Z,81.07
2018-01-30T05:00:21.457Z,81.55
2018-01-30T05:01:21.358Z,81.74
2018-01-30T05:02:21.258Z,81.65
2018-01-30T05:03:21.259Z,81.84
2018-01-30T05:04:21.158Z,81.74
2018-01-30T05:05:21.008Z,82.21
2018-01-30T05:06:20.958Z,82.12
2018-01-30T05:07:20.909Z,82.03
2018-01-30T05:08:20.859Z,81.93
2018-01-30T05:09:20.809Z,82.40
2018-01-30T05:10:20.759Z,82.21
2018-01-30T05:11:20.709Z,82.50
2018-01-30T05:12:20.659Z,82.40
2018-01-30T05:13:20.609Z,82.78
2018-01-30T05:14:20.560Z,82.59
2018-01-30T05:15:20.510Z,82.78
2018-01-30T05:16:20.560Z,83.07
2018-01-30T05:17:20.409Z,83.07
2018-01-30T05:18:20.360Z,82.88
2018-01-30T05:19:20.309Z,83.50
2018-01-30T05:20:20.259Z,83.31
2018-01-30T05:21:20.209Z,83.03
2018-01-30T05:22:20.159Z,84.17
2018-01-30T05:23:20.110Z,83.97
2018-01-30T05:24:20.061Z,83.69
2018-01-30T05:25:20.009Z,84.17
2018-01-30T05:26:19.959Z,83.97
2018-01-30T05:27:19.909Z,83.97
2018-01-30T05:28:19.858Z,84.17
2018-01-30T05:29:19.808Z,84.17
2018-01-30T05:30:19.758Z,84.45
2018-01-30T05:31:19.707Z,84.17
2018-01-30T05:32:19.657Z,83.88
2018-01-30T05:33:19.607Z,84.17
2018-01-30T05:34:19.557Z,84.17
2018-01-30T05:35:19.507Z,84.07
2018-01-30T05:36:19.456Z,83.50
2018-01-30T05:37:19.406Z,83.78
2018-01-30T05:38:19.356Z,83.59
2018-01-30T05:39:19.306Z,83.73
2018-01-30T05:40:19.255Z,83.36
2018-01-30T05:41:19.205Z,83.64
2018-01-30T05:42:19.205Z,83.16
2018-01-30T05:43:19.105Z,82.97
2018-01-30T05:44:19.054Z,82.78
2018-01-30T05:45:19.004Z,83.07
2018-01-30T05:46:18.954Z,83.16
2018-01-30T05:47:18.904Z,83.16
2018-01-30T05:48:18.853Z,82.97
2018-01-30T05:49:18.803Z,82.97
2018-01-30T05:50:18.753Z,83.16
2018-01-30T05:51:18.704Z,83.16
2018-01-30T05:52:18.651Z,82.78
2018-01-30T05:53:18.602Z,82.69
2018-01-30T05:54:18.553Z,82.59
2018-01-30T05:55:18.503Z,82.69
2018-01-30T05:56:18.451Z,82.31
2018-01-30T05:57:18.402Z,82.69
2018-01-30T05:58:18.352Z,82.78
2018-01-30T05:59:18.302Z,82.40
2018-01-30T06:00:18.250Z,82.31
2018-01-30T06:01:18.201Z,82.40
2018-01-30T06:02:18.151Z,82.21
2018-01-30T06:03:18.101Z,82.31
2018-01-30T06:04:18.050Z,82.21
2018-01-30T06:05:18.000Z,81.88
2018-01-30T06:06:17.950Z,81.88
2018-01-30T06:07:17.901Z,82.55
2018-01-30T06:08:17.848Z,82.17
2018-01-30T06:09:17.805Z,82.36
2018-01-30T06:10:17.749Z,82.27
2018-01-30T06:11:17.697Z,82.08
2018-01-30T06:12:17.648Z,82.74
2018-01-30T06:13:17.598Z,82.17
2018-01-30T06:14:17.549Z,82.46
2018-01-30T06:15:17.498Z,82.65
2018-01-30T06:16:17.446Z,82.84
2018-01-30T06:17:17.396Z,82.93
2018-01-30T06:18:17.346Z,83.03
2018-01-30T06:19:17.296Z,82.55
2018-01-30T06:20:17.245Z,82.65
2018-01-30T06:21:17.195Z,82.36
2018-01-30T06:22:17.145Z,82.27
2018-01-30T06:23:17.095Z,82.27
2018-01-30T06:24:17.046Z,82.36
2018-01-30T06:25:16.994Z,81.88
2018-01-30T06:26:16.944Z,81.88
2018-01-30T06:27:16.893Z,81.93
2018-01-30T06:28:16.846Z,82.31
2018-01-30T06:29:16.792Z,82.12
2018-01-30T06:30:16.742Z,81.93
2018-01-30T06:31:16.693Z,81.93
2018-01-30T06:32:16.640Z,82.12
2018-01-30T06:33:16.593Z,82.03
2018-01-30T06:34:16.542Z,81.84
2018-01-30T06:35:16.493Z,81.65
2018-01-30T06:36:16.440Z,81.45
2018-01-30T06:37:16.391Z,81.93
2018-01-30T06:38:16.340Z,80.98
2018-01-30T06:40:16.239Z,81.45
2018-01-30T06:41:16.190Z,80.88
2018-01-30T06:42:16.140Z,81.36
2018-01-30T06:43:16.089Z,81.36
2018-01-30T06:44:16.038Z,81.55
2018-01-30T06:45:15.989Z,81.26
2018-01-30T06:46:15.939Z,81.17
2018-01-30T06:47:15.894Z,81.26
2018-01-30T06:48:15.837Z,80.98
2018-01-30T06:49:15.788Z,80.88
2018-01-30T06:50:15.740Z,80.98
2018-01-30T06:51:15.688Z,80.64
2018-01-30T06:52:15.638Z,80.64
2018-01-30T06:53:15.587Z,80.55
2018-01-30T06:54:15.538Z,80.98
2018-01-30T06:55:15.488Z,80.41
2018-01-30T06:56:15.437Z,80.74
2018-01-30T06:57:15.386Z,80.35
2018-01-30T06:58:15.338Z,80.64
2018-01-30T06:59:15.338Z,80.35
2018-01-30T07:00:15.237Z,80.45
2018-01-30T07:01:15.188Z,80.26
2018-01-30T07:02:15.138Z,80.26
2018-01-30T07:03:15.090Z,80.07
2018-01-30T07:04:15.038Z,79.88
2018-01-30T07:05:14.990Z,79.97
2018-01-30T07:06:14.938Z,79.97
2018-01-30T07:07:14.889Z,79.79
2018-01-30T07:08:14.840Z,79.69
2018-01-30T07:09:14.839Z,79.97
2018-01-30T07:10:14.740Z,79.88
2018-01-30T07:11:14.689Z,79.31
2018-01-30T07:12:14.639Z,80.26
2018-01-30T07:13:14.590Z,79.50
2018-01-30T07:14:14.546Z,79.97
2018-01-30T07:15:14.491Z,80.26
2018-01-30T07:16:14.440Z,79.60
2018-01-30T07:17:14.391Z,79.79
2018-01-30T07:18:14.341Z,79.60
2018-01-30T07:19:14.292Z,79.41
2018-01-30T07:20:14.247Z,79.31
2018-01-30T07:21:14.192Z,79.31
2018-01-30T07:22:14.141Z,79.31
2018-01-30T07:23:14.092Z,79.50
2018-01-30T07:24:14.043Z,79.88
2018-01-30T07:25:13.993Z,79.79
2018-01-30T07:26:13.944Z,79.41
2018-01-30T07:27:13.894Z,79.50
2018-01-30T07:28:13.844Z,79.41
2018-01-30T07:29:13.794Z,80.07
2018-01-30T07:30:13.744Z,80.45
2018-01-30T07:31:13.697Z,79.69
2018-01-30T07:32:13.644Z,79.60
2018-01-30T07:33:13.608Z,79.50
2018-01-30T07:34:13.546Z,79.22
2018-01-30T07:35:13.497Z,79.41
2018-01-30T07:36:13.597Z,79.22
2018-01-30T07:37:13.398Z,79.60
2018-01-30T07:38:13.348Z,79.60
2018-01-30T07:39:13.299Z,79.41
2018-01-30T07:40:13.248Z,79.31
2018-01-30T07:41:13.199Z,79.31
2018-01-30T07:42:13.150Z,78.93
2018-01-30T07:43:13.099Z,79.50
2018-01-30T07:44:13.050Z,79.22
2018-01-30T07:45:13.001Z,79.03
2018-01-30T07:46:13.027Z,78.93
2018-01-30T07:47:12.917Z,79.12
2018-01-30T07:48:12.852Z,78.93
2018-01-30T07:49:12.805Z,79.03
2018-01-30T07:50:12.753Z,78.83
2018-01-30T07:51:12.704Z,78.93
2018-01-30T07:52:12.654Z,78.74
2018-01-30T07:53:12.604Z,78.93
2018-01-30T07:54:12.556Z,78.93
2018-01-30T07:55:12.507Z,78.83
2018-01-30T07:56:12.456Z,78.83
2018-01-30T07:57:12.407Z,78.93
2018-01-30T07:58:12.359Z,78.83
2018-01-30T07:59:12.309Z,78.83
2018-01-30T08:00:12.259Z,79.12
2018-01-30T08:01:12.210Z,79.12
2018-01-30T08:02:12.161Z,79.03
2018-01-30T08:03:12.112Z,78.93
2018-01-30T08:04:12.062Z,79.03
2018-01-30T08:05:12.013Z,78.45
2018-01-30T08:06:11.963Z,78.45
2018-01-30T08:07:11.913Z,78.55
2018-01-30T08:08:11.864Z,78.45
2018-01-30T08:09:11.821Z,78.64
2018-01-30T08:10:11.767Z,78.45
2018-01-30T08:11:11.767Z,78.36
2018-01-30T08:12:11.666Z,78.45
2018-01-30T08:13:11.818Z,78.78
2018-01-30T08:14:11.569Z,78.36
2018-01-30T08:15:11.520Z,78.74
2018-01-30T08:16:11.470Z,78.55
2018-01-30T08:17:11.421Z,78.45
2018-01-30T08:18:11.375Z,78.64
2018-01-30T08:19:11.323Z,78.08
2018-01-30T08:20:11.277Z,78.36
2018-01-30T08:21:11.224Z,78.27
2018-01-30T08:22:11.175Z,78.02
2018-01-30T08:23:11.126Z,78.59
2018-01-30T08:24:11.527Z,78.59
2018-01-30T08:25:11.377Z,78.40
2018-01-30T08:26:11.278Z,78.30
2018-01-30T08:27:11.279Z,78.30
2018-01-30T08:28:11.179Z,78.50
2018-01-30T08:29:11.080Z,78.21
2018-01-30T08:30:10.932Z,78.21
2018-01-30T08:31:10.832Z,78.40
2018-01-30T08:32:10.883Z,78.21
2018-01-30T08:33:10.783Z,78.21
2018-01-30T08:34:10.685Z,78.21
2018-01-30T08:35:10.535Z,78.11
2018-01-30T08:36:10.485Z,78.11
2018-01-30T08:37:10.486Z,77.89
2018-01-30T08:38:10.387Z,77.98
2018-01-30T08:39:10.338Z,78.30
2018-01-30T08:40:10.288Z,78.02
2018-01-30T08:41:10.239Z,78.08
2018-01-30T08:42:10.191Z,78.21
2018-01-30T08:43:10.142Z,78.27
2018-01-30T08:44:10.090Z,78.59
2018-01-30T08:45:10.043Z,78.59
2018-01-30T08:46:09.995Z,78.50
2018-01-30T08:47:09.945Z,78.40
2018-01-30T08:48:09.895Z,78.02
2018-01-30T08:49:09.845Z,77.92
2018-01-30T08:50:09.800Z,78.02
2018-01-30T08:51:09.748Z,77.73
2018-01-30T08:52:09.698Z,78.02
2018-01-30T08:53:09.650Z,77.92
2018-01-30T08:54:09.601Z,77.64
2018-01-30T08:55:09.552Z,77.55
2018-01-30T08:56:09.501Z,77.26
2018-01-30T08:57:09.454Z,77.26
2018-01-30T08:58:09.405Z,77.26
2018-01-30T08:59:09.356Z,77.36
2018-01-30T09:00:09.306Z,76.88
2018-01-30T09:01:09.258Z,77.26
2018-01-30T09:02:09.210Z,77.45
2018-01-30T09:03:09.161Z,77.73
2018-01-30T09:04:09.112Z,77.26
2018-01-30T09:05:09.061Z,77.55
2018-01-30T09:06:09.014Z,77.36
2018-01-30T09:07:08.966Z,77.36
2018-01-30T09:08:08.919Z,76.69
2018-01-30T09:09:08.868Z,76.35
2018-01-30T09:10:08.819Z,76.63
2018-01-30T09:11:08.821Z,76.82
2018-01-30T09:12:08.726Z,76.16
2018-01-30T09:13:08.674Z,75.96
2018-01-30T09:14:08.626Z,75.87
2018-01-30T09:15:08.577Z,76.25
2018-01-30T09:16:08.527Z,76.06
2018-01-30T09:17:08.478Z,76.92
2018-01-30T09:18:08.436Z,76.82
2018-01-30T09:19:08.383Z,75.96
2018-01-30T09:20:08.335Z,76.44
2018-01-30T09:21:08.286Z,76.25
2018-01-30T09:22:08.237Z,76.06
2018-01-30T09:23:08.189Z,76.25
2018-01-30T09:24:08.140Z,76.16
2018-01-30T09:25:08.091Z,76.12
2018-01-30T09:26:08.044Z,75.78
2018-01-30T09:27:08.000Z,75.74
2018-01-30T09:28:07.946Z,75.74
2018-01-30T09:29:07.898Z,75.59
2018-01-30T09:30:07.850Z,75.68
2018-01-30T09:31:07.801Z,76.12
2018-01-30T09:32:07.752Z,76.16
2018-01-30T09:33:07.704Z,75.87
2018-01-30T09:34:07.664Z,75.59
2018-01-30T09:35:07.607Z,76.16
2018-01-30T09:36:07.609Z,75.96
2018-01-30T09:37:07.510Z,75.93
2018-01-30T09:38:07.461Z,76.12
2018-01-30T09:39:07.412Z,76.31
2018-01-30T09:40:07.364Z,76.31
2018-01-30T09:41:07.317Z,76.25
2018-01-30T09:42:07.267Z,75.93
2018-01-30T09:43:07.218Z,75.84
2018-01-30T09:44:07.169Z,75.93
2018-01-30T09:45:07.122Z,75.93
2018-01-30T09:46:07.072Z,75.74
2018-01-30T09:47:07.024Z,75.78
2018-01-30T09:48:06.977Z,75.49
2018-01-30T09:49:06.927Z,75.11
2018-01-30T09:50:06.879Z,75.40
2018-01-30T09:51:06.830Z,75.11
2018-01-30T09:52:06.781Z,75.26
2018-01-30T09:53:06.732Z,75.59
2018-01-30T09:54:06.683Z,75.49
2018-01-30T09:55:06.636Z,75.78
2018-01-30T09:56:06.585Z,74.92
2018-01-30T09:57:06.537Z,74.88
2018-01-30T09:58:06.490Z,75.40
2018-01-30T09:59:06.441Z,75.49
2018-01-30T10:00:06.392Z,75.59
2018-01-30T10:01:06.343Z,75.11
2018-01-30T10:02:06.295Z,75.49
2018-01-30T10:03:06.245Z,75.30
2018-01-30T10:04:06.197Z,75.11
2018-01-30T10:05:06.199Z,74.73
2018-01-30T10:06:06.100Z,74.82
2018-01-30T10:07:06.052Z,74.73
2018-01-30T10:08:06.004Z,74.82
2018-01-30T10:09:05.958Z,74.82
2018-01-30T10:10:05.907Z,74.73
2018-01-30T10:11:05.860Z,74.92
2018-01-30T10:12:05.808Z,74.73
2018-01-30T10:13:05.760Z,74.92
2018-01-30T10:14:05.712Z,74.82
2018-01-30T10:15:05.664Z,74.82
2018-01-30T10:16:05.614Z,74.73
2018-01-30T10:17:05.566Z,74.92
2018-01-30T10:18:05.518Z,75.21
2018-01-30T10:19:05.469Z,75.02
2018-01-30T10:20:05.440Z,74.73
2018-01-30T10:21:05.372Z,75.21
2018-01-30T10:22:05.326Z,74.92
2018-01-30T10:23:05.276Z,74.44
2018-01-30T10:24:05.226Z,74.26
2018-01-30T10:25:05.178Z,73.97
2018-01-30T10:26:05.132Z,74.16
2018-01-30T10:27:05.082Z,73.88
2018-01-30T10:28:05.033Z,73.78
2018-01-30T10:29:04.986Z,73.97
2018-01-30T10:30:04.942Z,73.88
2018-01-30T10:31:04.888Z,73.88
2018-01-30T10:32:04.845Z,74.35
2018-01-30T10:33:04.790Z,74.07
2018-01-30T10:34:04.743Z,73.97
2018-01-30T10:35:04.694Z,74.16
2018-01-30T10:36:04.645Z,73.88
2018-01-30T10:37:04.597Z,74.07
2018-01-30T10:38:04.549Z,73.88
2018-01-30T10:39:04.502Z,73.97
2018-01-30T10:40:04.452Z,73.97
2018-01-30T10:41:04.405Z,74.16
2018-01-30T10:42:04.356Z,73.97
2018-01-30T10:43:04.313Z,73.30
2018-01-30T10:44:04.260Z,73.44
2018-01-30T10:45:04.211Z,73.40
2018-01-30T10:46:04.162Z,73.21
2018-01-30T10:47:04.116Z,73.63
2018-01-30T10:48:04.067Z,73.44
2018-01-30T10:49:04.019Z,73.34
2018-01-30T10:50:04.017Z,73.30
2018-01-30T10:51:03.923Z,73.49
2018-01-30T10:52:03.876Z,73.78
2018-01-30T10:53:03.826Z,73.78
2018-01-30T10:54:03.779Z,73.69
2018-01-30T10:55:03.731Z,73.69
2018-01-30T10:56:03.683Z,73.59
2018-01-30T10:57:03.685Z,73.30
2018-01-30T10:58:03.587Z,73.40
2018-01-30T10:59:03.539Z,73.59
2018-01-30T11:00:03.491Z,74.26
2018-01-30T11:01:03.443Z,73.97
2018-01-30T11:02:03.393Z,73.88
2018-01-30T11:03:03.346Z,74.07
2018-01-30T11:04:03.297Z,73.69
2018-01-30T11:05:03.249Z,73.78
2018-01-30T11:06:03.201Z,73.88
2018-01-30T11:07:03.152Z,73.88
2018-01-30T11:08:03.104Z,74.07
2018-01-30T11:09:03.055Z,74.44
2018-01-30T11:10:03.008Z,74.35
2018-01-30T11:11:02.959Z,74.35
2018-01-30T11:12:02.912Z,74.63
2018-01-30T11:13:02.861Z,74.63
2018-01-30T11:14:02.814Z,74.35
2018-01-30T11:15:02.767Z,74.44
2018-01-30T11:16:02.715Z,74.44
2018-01-30T11:17:02.668Z,74.26
2018-01-30T11:18:02.620Z,74.44
2018-01-30T11:19:02.573Z,74.07
2018-01-30T11:20:02.523Z,73.78
2018-01-30T11:21:02.475Z,73.97
2018-01-30T11:22:02.427Z,74.26
2018-01-30T11:23:02.378Z,73.59
2018-01-30T11:24:02.330Z,73.59
2018-01-30T11:25:02.282Z,73.78
2018-01-30T11:26:02.234Z,73.49
2018-01-30T11:27:02.188Z,73.44
2018-01-30T11:28:02.137Z,73.30
2018-01-30T11:29:02.089Z,73.44
2018-01-30T11:30:02.042Z,73.21
2018-01-30T11:31:01.996Z,73.06
2018-01-30T11:32:01.946Z,73.15
2018-01-30T11:33:01.897Z,73.06
2018-01-30T11:34:01.848Z,73.25
2018-01-30T11:35:01.800Z,73.15
2018-01-30T11:36:01.752Z,72.77
2018-01-30T11:37:01.704Z,72.77
2018-01-30T11:38:01.655Z,72.77
2018-01-30T11:39:01.609Z,72.49
2018-01-30T11:40:01.559Z,71.91
2018-01-30T11:41:01.512Z,72.20
2018-01-30T11:42:01.463Z,71.82
2018-01-30T11:43:01.416Z,72.01
2018-01-30T11:44:01.368Z,71.82
2018-01-30T11:45:01.319Z,71.63
2018-01-30T11:46:01.272Z,71.25
2018-01-30T11:47:01.230Z,71.53
2018-01-30T11:48:01.176Z,71.15
2018-01-30T11:49:01.128Z,70.68
2018-01-30T11:50:01.081Z,71.15
2018-01-30T11:51:01.033Z,70.20
2018-01-30T11:52:00.985Z,69.63
2018-01-30T11:53:00.936Z,69.82
2018-01-30T11:54:00.889Z,70.01
2018-01-30T11:55:01.291Z,69.63
2018-01-30T11:56:00.791Z,69.63
2018-01-30T11:57:01.195Z,69.63
2018-01-30T11:58:01.097Z,69.82
2018-01-30T11:59:01.000Z,69.82
2018-01-30T12:00:00.900Z,69.63
2018-01-30T12:01:00.904Z,69.82
2018-01-30T12:02:00.805Z,69.63
2018-01-30T12:03:00.708Z,69.73
2018-01-30T12:04:00.609Z,69.63
2018-01-30T12:05:00.460Z,69.63
2018-01-30T12:06:00.364Z,69.54
2018-01-30T12:07:00.416Z,69.63
2018-01-30T12:08:00.318Z,69.63
2018-01-30T12:09:00.220Z,69.44
2018-01-30T12:10:00.122Z,69.73
2018-01-30T12:11:00.075Z,69.63
2018-01-30T12:12:00.032Z,69.63
2018-01-30T12:13:00.079Z,68.96
2018-01-30T12:13:59.931Z,69.25
2018-01-30T12:14:59.884Z,69.06
2018-01-30T12:15:59.834Z,69.15
2018-01-30T12:16:59.788Z,69.06
2018-01-30T12:17:59.740Z,68.49
2018-01-30T12:18:59.727Z,68.62
2018-01-30T12:19:59.645Z,68.71
2018-01-30T12:20:59.602Z,68.11
2018-01-30T12:21:59.551Z,68.21
2018-01-30T12:22:59.504Z,68.30
2018-01-30T12:23:59.455Z,68.49
2018-01-30T12:24:59.406Z,68.21
2018-01-30T12:25:59.359Z,67.82
2018-01-30T12:26:59.312Z,68.21
2018-01-30T12:27:59.264Z,68.30
2018-01-30T12:28:59.217Z,69.15
2018-01-30T12:29:59.170Z,69.25
2018-01-30T12:30:59.123Z,68.87
2018-01-30T12:31:59.074Z,68.96
2018-01-30T12:32:59.029Z,69.63
2018-01-30T12:33:58.979Z,69.63
2018-01-30T12:34:58.937Z,69.92
2018-01-30T12:35:58.891Z,69.73
2018-01-30T12:36:58.835Z,69.73
2018-01-30T12:37:58.788Z,69.63
2018-01-30T12:38:58.740Z,69.63
2018-01-30T12:39:58.692Z,69.63
2018-01-30T12:40:58.644Z,69.63
2018-01-30T12:41:58.597Z,69.63
2018-01-30T12:42:58.550Z,69.73
2018-01-30T12:43:58.502Z,69.25
2018-01-30T12:44:58.454Z,69.25
2018-01-30T12:45:58.409Z,69.06
2018-01-30T12:46:58.360Z,69.73
2018-01-30T12:47:58.311Z,69.25
2018-01-30T12:48:58.264Z,68.87
2018-01-30T12:49:58.217Z,69.06
2018-01-30T12:50:58.169Z,69.25
2018-01-30T12:51:58.121Z,68.59
2018-01-30T12:52:58.074Z,68.30
2018-01-30T12:53:58.027Z,68.49